createdAt,value
2022-09-25T00:00:50.221Z,9.17
2022-09-25T00:03:18.099Z,8.83
2022-09-25T00:05:45.954Z,9.03
2022-09-25T00:08:13.151Z,8.57
2022-09-25T00:10:48.579Z,8.90
2022-09-25T00:13:16.562Z,8.20
2022-09-25T00:15:51.138Z,9.53
2022-09-25T00:18:37.605Z,9.97
2022-09-25T00:21:05.482Z,10.33
2022-09-25T00:23:32.298Z,10.27
2022-09-25T00:25:59.808Z,10.40
2022-09-25T00:28:29.053Z,10.40
2022-09-25T00:30:56.486Z,10.87
2022-09-25T00:33:23.631Z,10.70
2022-09-25T00:35:50.324Z,10.73
2022-09-25T00:38:16.753Z,11.50
2022-09-25T00:40:43.362Z,10.17
2022-09-25T00:43:14.674Z,11.80
2022-09-25T00:45:42.418Z,11.07
2022-09-25T00:48:14.065Z,10.43
2022-09-25T00:50:48.768Z,10.93
2022-09-25T00:53:21.265Z,11.40
2022-09-25T00:55:47.773Z,12.83
2022-09-25T00:58:17.630Z,11.40
2022-09-25T01:00:44.514Z,12.23
2022-09-25T01:03:11.424Z,12.43
2022-09-25T01:05:41.859Z,11.90
2022-09-25T01:08:11.120Z,12.70
2022-09-25T01:10:37.619Z,12.93
2022-09-25T01:13:04.662Z,11.30
2022-09-25T01:15:37.108Z,11.83
2022-09-25T01:18:25.347Z,12.00
2022-09-25T01:21:28.103Z,12.03
2022-09-25T01:24:11.641Z,11.43
2022-09-25T01:27:13.380Z,12.73
2022-09-25T01:29:53.994Z,12.13
2022-09-25T01:32:25.846Z,13.13
2022-09-25T01:35:18.574Z,13.50
2022-09-25T01:37:49.637Z,12.87
2022-09-25T01:40:16.193Z,12.47
2022-09-25T01:42:55.625Z,12.47
2022-09-25T01:45:28.144Z,12.87
2022-09-25T01:47:57.192Z,12.73
2022-09-25T01:50:48.003Z,12.77
2022-09-25T01:53:18.756Z,12.50
2022-09-25T01:55:49.185Z,13.07
2022-09-25T01:58:39.072Z,12.57
2022-09-25T02:01:14.966Z,12.27
2022-09-25T02:03:46.654Z,12.63
2022-09-25T02:06:16.957Z,12.23
2022-09-25T02:09:04.304Z,12.27
2022-09-25T02:11:36.317Z,12.00
2022-09-25T02:14:06.891Z,13.17
2022-09-25T02:16:38.524Z,12.50
2022-09-25T02:19:24.164Z,12.30
2022-09-25T02:22:04.542Z,13.33
2022-09-25T02:24:39.487Z,14.30
2022-09-25T02:27:06.154Z,14.23
2022-09-25T02:29:32.705Z,13.77
2022-09-25T02:32:09.021Z,14.03
2022-09-25T02:34:36.249Z,14.13
2022-09-25T02:37:03.281Z,14.63
2022-09-25T02:39:30.731Z,13.80
2022-09-25T02:42:14.682Z,13.47
2022-09-25T02:45:18.192Z,15.70
2022-09-25T02:47:56.552Z,14.70
2022-09-25T02:50:41.219Z,15.30
2022-09-25T02:53:18.532Z,16.00
2022-09-25T02:55:51.963Z,14.70
2022-09-25T02:58:24.676Z,15.67
2022-09-25T03:00:52.925Z,15.33
2022-09-25T03:03:20.158Z,16.43
2022-09-25T03:05:48.635Z,16.63
2022-09-25T03:08:33.971Z,15.67
2022-09-25T03:11:00.689Z,15.93
2022-09-25T03:13:32.023Z,16.77
2022-09-25T03:16:04.381Z,17.40
2022-09-25T03:18:31.527Z,15.90
2022-09-25T03:20:58.617Z,16.67
2022-09-25T03:23:25.270Z,17.93
2022-09-25T03:25:55.273Z,17.57
2022-09-25T03:28:22.689Z,16.90
2022-09-25T03:31:02.043Z,18.57
2022-09-25T03:33:30.823Z,18.97
2022-09-25T03:36:03.163Z,17.83
2022-09-25T03:38:29.580Z,17.87
2022-09-25T03:40:56.077Z,18.57
2022-09-25T03:43:22.630Z,18.37
2022-09-25T03:45:49.113Z,17.77
2022-09-25T03:48:15.644Z,19.30
2022-09-25T03:50:42.114Z,20.10
2022-09-25T03:53:08.595Z,18.97
2022-09-25T03:55:35.032Z,19.57
2022-09-25T03:58:01.436Z,19.17
2022-09-25T04:00:27.884Z,18.07
2022-09-25T04:02:54.355Z,19.37
2022-09-25T04:05:21.097Z,19.20
2022-09-25T04:07:48.208Z,18.30
2022-09-25T04:10:14.726Z,19.23
2022-09-25T04:12:43.524Z,18.70
2022-09-25T04:15:10.220Z,17.97
2022-09-25T04:17:36.636Z,18.80
2022-09-25T04:20:04.611Z,18.67
2022-09-25T04:22:31.101Z,18.43
2022-09-25T04:24:58.349Z,17.93
2022-09-25T04:27:24.788Z,18.97
2022-09-25T04:29:51.177Z,18.20
2022-09-25T04:32:36.192Z,17.97
2022-09-25T04:35:04.079Z,18.47
2022-09-25T04:37:30.761Z,17.43
2022-09-25T04:39:58.264Z,18.50
2022-09-25T04:42:25.454Z,16.80
2022-09-25T04:44:53.611Z,17.43
2022-09-25T04:47:21.253Z,17.00
2022-09-25T04:49:48.144Z,18.50
2022-09-25T04:52:15.847Z,17.53
2022-09-25T04:54:42.802Z,18.63
2022-09-25T04:57:11.026Z,17.03
2022-09-25T04:59:37.934Z,17.70
2022-09-25T05:02:04.714Z,18.93
2022-09-25T05:04:31.396Z,17.33
2022-09-25T05:06:57.998Z,16.47
2022-09-25T05:09:24.451Z,17.50
2022-09-25T05:11:51.006Z,16.80
2022-09-25T05:14:17.441Z,16.33
2022-09-25T05:16:46.292Z,18.67
2022-09-25T05:19:13.092Z,17.33
2022-09-25T05:21:39.907Z,17.43
2022-09-25T05:24:08.448Z,17.73
2022-09-25T05:26:36.213Z,17.50
2022-09-25T05:29:04.349Z,16.90
2022-09-25T05:31:33.715Z,17.03
2022-09-25T05:34:00.276Z,16.27
2022-09-25T05:36:26.888Z,16.77
2022-09-25T05:38:54.498Z,16.57
2022-09-25T05:41:21.660Z,17.67
2022-09-25T05:43:48.106Z,17.47
2022-09-25T05:46:15.415Z,18.67
2022-09-25T05:48:42.072Z,18.07
2022-09-25T05:51:08.677Z,16.97
2022-09-25T05:53:35.180Z,16.60
2022-09-25T05:56:04.461Z,18.40
2022-09-25T05:58:33.419Z,17.17
2022-09-25T06:01:01.594Z,17.53
2022-09-25T06:03:30.885Z,17.73
2022-09-25T06:05:58.223Z,18.37
2022-09-25T06:08:25.798Z,18.07
2022-09-25T06:10:54.194Z,16.80
2022-09-25T06:13:22.081Z,18.00
2022-09-25T06:15:50.817Z,17.13
2022-09-25T06:18:17.397Z,17.83
2022-09-25T06:20:44.094Z,16.80
2022-09-25T06:23:10.697Z,17.43
2022-09-25T06:25:37.222Z,17.23
2022-09-25T06:28:04.891Z,17.00
2022-09-25T06:30:36.275Z,18.00
2022-09-25T06:33:13.504Z,17.30
2022-09-25T06:35:44.199Z,16.20
2022-09-25T06:38:11.211Z,16.80
2022-09-25T06:40:40.958Z,15.37
2022-09-25T06:43:10.646Z,16.00
2022-09-25T06:45:39.133Z,16.73
2022-09-25T06:48:10.179Z,16.07
2022-09-25T06:50:41.496Z,16.20
2022-09-25T06:53:08.851Z,15.67
2022-09-25T06:55:35.613Z,15.60
2022-09-25T06:58:03.090Z,16.57
2022-09-25T07:00:29.729Z,15.83
2022-09-25T07:03:17.122Z,15.30
2022-09-25T07:05:44.532Z,15.00
2022-09-25T07:08:13.987Z,15.20
2022-09-25T07:10:45.102Z,14.23
2022-09-25T07:13:12.230Z,14.30
2022-09-25T07:15:39.289Z,13.93
2022-09-25T07:18:05.870Z,14.20
2022-09-25T07:20:32.606Z,13.60
2022-09-25T07:23:04.347Z,12.83
2022-09-25T07:25:33.961Z,12.70
2022-09-25T07:28:00.451Z,11.70
2022-09-25T07:30:32.344Z,11.97
2022-09-25T07:33:00.267Z,12.23
2022-09-25T07:35:27.301Z,12.67
2022-09-25T07:37:59.518Z,12.83
2022-09-25T07:40:28.924Z,11.17
2022-09-25T07:43:03.895Z,11.47
2022-09-25T07:45:31.313Z,11.57
2022-09-25T07:48:00.790Z,12.20
2022-09-25T07:50:28.714Z,11.88
2022-09-25T07:52:55.674Z,11.70
2022-09-25T07:55:22.727Z,11.07
2022-09-25T07:57:52.174Z,11.45
2022-09-25T08:00:18.835Z,11.00
2022-09-25T08:02:45.443Z,10.43
2022-09-25T08:05:12.407Z,9.70
2022-09-25T08:07:40.089Z,10.23
2022-09-25T08:10:07.420Z,8.30
2022-09-25T08:12:34.224Z,9.55
2022-09-25T08:15:00.718Z,9.10
2022-09-25T08:17:31.224Z,8.95
2022-09-25T08:19:58.471Z,10.07
2022-09-25T08:22:25.126Z,9.13
2022-09-25T08:24:51.867Z,9.80
2022-09-25T08:27:18.512Z,10.32
2022-09-25T08:29:45.437Z,10.50
2022-09-25T08:32:12.161Z,11.20
2022-09-25T08:34:41.464Z,11.60
2022-09-25T08:37:09.672Z,11.93
2022-09-25T08:39:36.340Z,11.40
2022-09-25T08:42:06.560Z,12.27
2022-09-25T08:44:56.950Z,11.83
2022-09-25T08:47:48.148Z,12.10
2022-09-25T08:50:22.785Z,11.57
2022-09-25T08:52:53.540Z,11.60
2022-09-25T08:55:46.123Z,13.00
2022-09-25T08:58:21.029Z,12.37
2022-09-25T09:00:48.006Z,11.23
2022-09-25T09:03:15.329Z,10.57
2022-09-25T09:05:51.717Z,9.87
2022-09-25T09:08:20.677Z,9.93
2022-09-25T09:10:53.248Z,9.70
2022-09-25T09:13:30.729Z,10.67
2022-09-25T09:16:02.089Z,10.50
2022-09-25T09:18:36.519Z,10.23
2022-09-25T09:21:28.706Z,11.63
2022-09-25T09:24:26.360Z,9.73
2022-09-25T09:27:16.359Z,9.43
2022-09-25T09:30:15.892Z,8.73
2022-09-25T09:33:01.753Z,9.03
2022-09-25T09:35:49.186Z,8.73
2022-09-25T09:38:21.678Z,7.70
2022-09-25T09:41:26.970Z,7.63
2022-09-25T09:44:19.258Z,8.03
2022-09-25T09:47:17.514Z,7.77
2022-09-25T09:49:51.114Z,8.07
2022-09-25T09:52:21.321Z,7.63
2022-09-25T09:54:58.096Z,7.17
2022-09-25T09:57:27.417Z,7.70
2022-09-25T10:00:03.653Z,7.60
2022-09-25T10:02:40.805Z,7.47
2022-09-25T10:05:32.079Z,7.57
2022-09-25T10:07:58.673Z,7.13
2022-09-25T10:10:37.349Z,6.63
2022-09-25T10:13:07.372Z,6.57
2022-09-25T10:15:39.114Z,7.23
2022-09-25T10:18:06.939Z,6.50
2022-09-25T10:20:42.359Z,5.60
2022-09-25T10:23:32.428Z,6.10
2022-09-25T10:25:59.182Z,5.30
2022-09-25T10:28:32.426Z,5.97
2022-09-25T10:31:00.134Z,6.10
2022-09-25T10:33:29.324Z,6.13
2022-09-25T10:35:56.435Z,5.83
2022-09-25T10:38:44.320Z,6.30
2022-09-25T10:41:13.279Z,5.83
2022-09-25T10:44:03.013Z,5.63
2022-09-25T10:46:52.723Z,5.43
2022-09-25T10:49:43.479Z,5.90
2022-09-25T10:52:15.374Z,5.70
2022-09-25T10:54:45.447Z,6.00
2022-09-25T10:57:25.509Z,6.20
2022-09-25T10:59:52.483Z,5.67
2022-09-25T11:02:43.071Z,5.67
2022-09-25T11:05:18.372Z,5.80
2022-09-25T11:07:55.324Z,6.13
2022-09-25T11:10:24.260Z,5.67
2022-09-25T11:12:51.476Z,6.53
2022-09-25T11:15:20.584Z,6.07
2022-09-25T11:17:52.287Z,4.90
2022-09-25T11:20:31.806Z,4.70
2022-09-25T11:23:17.440Z,6.00
2022-09-25T11:26:05.995Z,5.00
2022-09-25T11:28:49.214Z,4.90
2022-09-25T11:31:41.280Z,5.13
2022-09-25T11:34:21.235Z,4.60
2022-09-25T11:37:04.389Z,5.63
2022-09-25T11:40:16.278Z,6.30
2022-09-25T11:42:42.755Z,5.63
2022-09-25T11:45:30.461Z,5.53
2022-09-25T11:48:05.371Z,5.70
2022-09-25T11:51:10.103Z,6.17
2022-09-25T11:54:25.221Z,5.83
2022-09-25T11:57:34.571Z,6.57
2022-09-25T12:00:14.420Z,6.50
2022-09-25T12:02:52.831Z,6.00
2022-09-25T12:05:29.578Z,6.17
2022-09-25T12:08:04.967Z,5.53
2022-09-25T12:10:44.047Z,5.40
2022-09-25T12:13:23.856Z,6.13
2022-09-25T12:16:04.372Z,5.33
2022-09-25T12:19:03.369Z,5.20
2022-09-25T12:21:34.592Z,5.90
2022-09-25T12:24:06.235Z,5.10
2022-09-25T12:26:55.352Z,4.47
2022-09-25T12:29:35.676Z,5.03
2022-09-25T12:32:25.496Z,6.23
2022-09-25T12:35:29.567Z,5.90
2022-09-25T12:38:05.649Z,6.33
2022-09-25T12:40:40.366Z,5.90
2022-09-25T12:43:28.938Z,5.43
2022-09-25T12:46:31.804Z,5.37
2022-09-25T12:49:05.986Z,5.37
2022-09-25T12:51:51.435Z,5.80
2022-09-25T12:54:25.797Z,5.83
2022-09-25T12:56:56.788Z,5.70
2022-09-25T12:59:34.042Z,5.67
2022-09-25T13:02:04.439Z,4.93
2022-09-25T13:04:53.251Z,5.13
2022-09-25T13:07:25.128Z,5.23
2022-09-25T13:09:52.211Z,4.93
2022-09-25T13:12:33.283Z,5.10
2022-09-25T13:15:18.803Z,5.60
2022-09-25T13:17:45.345Z,5.43
2022-09-25T13:20:27.052Z,4.67
2022-09-25T13:23:05.751Z,4.80
2022-09-25T13:25:42.155Z,5.03
2022-09-25T13:28:17.030Z,5.17
2022-09-25T13:30:58.135Z,5.10
2022-09-25T13:33:24.948Z,4.97
2022-09-25T13:36:07.111Z,5.33
2022-09-25T13:38:58.480Z,4.73
2022-09-25T13:41:25.629Z,5.30
2022-09-25T13:44:31.359Z,6.20
2022-09-25T13:47:25.924Z,5.03
2022-09-25T13:50:19.013Z,5.43
2022-09-25T13:52:45.506Z,5.40
2022-09-25T13:55:17.152Z,5.83
2022-09-25T13:57:58.984Z,6.30
2022-09-25T14:00:55.762Z,6.03
2022-09-25T14:03:30.333Z,6.13
2022-09-25T14:05:57.439Z,6.57
2022-09-25T14:08:24.224Z,5.60
2022-09-25T14:10:52.037Z,6.13
2022-09-25T14:13:22.248Z,5.33
2022-09-25T14:15:48.694Z,5.90
2022-09-25T14:18:36.327Z,5.90
2022-09-25T14:21:06.337Z,6.47
2022-09-25T14:23:33.408Z,5.60
2022-09-25T14:26:01.982Z,5.67
2022-09-25T14:28:30.902Z,5.13
2022-09-25T14:31:26.267Z,6.30
2022-09-25T14:34:20.511Z,6.70
2022-09-25T14:37:18.754Z,6.37
2022-09-25T14:40:06.039Z,6.30
2022-09-25T14:42:43.907Z,6.03
2022-09-25T14:45:34.299Z,6.47
2022-09-25T14:48:04.458Z,6.73
2022-09-25T14:50:34.624Z,6.67
2022-09-25T14:53:08.158Z,6.70
2022-09-25T14:55:37.867Z,6.57
2022-09-25T14:58:09.463Z,6.23
2022-09-25T15:00:44.705Z,6.23
2022-09-25T15:03:13.965Z,6.33
2022-09-25T15:05:46.507Z,6.30
2022-09-25T15:08:23.069Z,5.87
2022-09-25T15:11:01.132Z,6.27
2022-09-25T15:13:33.512Z,6.27
2022-09-25T15:16:19.194Z,6.97
2022-09-25T15:18:50.007Z,6.50
2022-09-25T15:21:32.184Z,6.53
2022-09-25T15:24:02.379Z,6.40
2022-09-25T15:26:30.968Z,6.40
2022-09-25T15:28:57.579Z,6.07
2022-09-25T15:31:25.260Z,5.80
2022-09-25T15:34:04.493Z,6.80
2022-09-25T15:36:31.095Z,5.83
2022-09-25T15:39:03.262Z,9.37
2022-09-25T15:41:30.005Z,8.27
2022-09-25T15:44:13.106Z,7.20
2022-09-25T15:46:42.871Z,5.83
2022-09-25T15:49:14.620Z,6.43
2022-09-25T15:51:52.759Z,5.83
2022-09-25T15:54:42.751Z,7.90
2022-09-25T15:57:13.259Z,6.77
2022-09-25T16:00:05.961Z,5.80
2022-09-25T16:02:57.165Z,6.50
2022-09-25T16:05:35.434Z,6.47
2022-09-25T16:08:23.899Z,6.00
2022-09-25T16:11:04.462Z,6.27
2022-09-25T16:13:30.988Z,5.30
2022-09-25T16:15:57.754Z,5.87
2022-09-25T16:18:32.141Z,6.33
2022-09-25T16:21:29.807Z,6.00
2022-09-25T16:24:07.442Z,6.93
2022-09-25T16:26:40.769Z,7.03
2022-09-25T16:29:17.606Z,9.00
2022-09-25T16:31:44.983Z,9.07
2022-09-25T16:34:25.952Z,8.37
2022-09-25T16:36:54.665Z,6.73
2022-09-25T16:39:28.414Z,7.20
2022-09-25T16:41:55.414Z,6.07
2022-09-25T16:44:25.238Z,6.53
2022-09-25T16:46:52.358Z,5.97
2022-09-25T16:49:21.978Z,7.17
2022-09-25T16:51:50.242Z,7.40
2022-09-25T16:54:18.753Z,7.10
2022-09-25T16:56:46.595Z,7.93
2022-09-25T16:59:24.465Z,7.40
2022-09-25T17:01:53.071Z,13.30
2022-09-25T17:04:26.556Z,10.67
2022-09-25T17:06:54.322Z,8.67
2022-09-25T17:09:20.768Z,8.10
2022-09-25T17:11:50.143Z,7.70
2022-09-25T17:14:23.114Z,7.03
2022-09-25T17:16:54.115Z,8.47
2022-09-25T17:19:21.375Z,7.93
2022-09-25T17:21:53.078Z,7.60
2022-09-25T17:24:22.641Z,7.00
2022-09-25T17:26:50.440Z,7.30
2022-09-25T17:29:17.024Z,7.17
2022-09-25T17:31:43.884Z,6.67
2022-09-25T17:34:16.979Z,6.87
2022-09-25T17:36:43.703Z,7.33
2022-09-25T17:39:10.572Z,7.03
2022-09-25T17:41:37.776Z,7.50
2022-09-25T17:44:05.246Z,7.60
2022-09-25T17:46:36.429Z,7.60
2022-09-25T17:49:04.276Z,7.80
2022-09-25T17:51:30.881Z,7.80
2022-09-25T17:53:59.154Z,8.40
2022-09-25T17:56:28.224Z,8.50
2022-09-25T17:58:57.332Z,9.57
2022-09-25T18:01:27.200Z,8.43
2022-09-25T18:03:59.842Z,9.83
2022-09-25T18:06:27.652Z,9.43
2022-09-25T18:08:55.972Z,9.07
2022-09-25T18:11:23.843Z,8.27
2022-09-25T18:13:54.670Z,9.37
2022-09-25T18:16:25.816Z,10.00
2022-09-25T18:19:11.152Z,9.40
2022-09-25T18:21:56.825Z,10.73
2022-09-25T18:24:23.385Z,10.37
2022-09-25T18:26:53.194Z,10.37
2022-09-25T18:29:20.924Z,9.80
2022-09-25T18:31:50.624Z,10.10
2022-09-25T18:34:18.329Z,11.10
2022-09-25T18:36:45.449Z,10.83
2022-09-25T18:39:16.094Z,9.93
2022-09-25T18:41:47.733Z,9.83
2022-09-25T18:44:15.241Z,9.30
2022-09-25T18:46:41.873Z,10.67
2022-09-25T18:49:08.803Z,10.10
2022-09-25T18:51:35.683Z,9.40
2022-09-25T18:54:04.629Z,12.10
2022-09-25T18:56:34.458Z,12.90
2022-09-25T18:59:05.906Z,11.67
2022-09-25T19:01:34.057Z,11.30
2022-09-25T19:04:00.709Z,10.53
2022-09-25T19:06:27.303Z,10.00
2022-09-25T19:08:57.878Z,10.50
2022-09-25T19:11:25.240Z,10.20
2022-09-25T19:13:51.751Z,10.47
2022-09-25T19:16:18.717Z,11.03
2022-09-25T19:18:45.351Z,11.10
2022-09-25T19:21:15.673Z,12.00
2022-09-25T19:23:42.809Z,10.73
2022-09-25T19:26:14.808Z,11.60
2022-09-25T19:28:41.792Z,9.87
2022-09-25T19:31:13.551Z,9.97
2022-09-25T19:33:40.355Z,11.47
2022-09-25T19:36:13.455Z,10.77
2022-09-25T19:38:43.528Z,10.70
2022-09-25T19:41:13.418Z,11.30
2022-09-25T19:43:39.984Z,11.43
2022-09-25T19:46:06.833Z,11.73
2022-09-25T19:48:33.572Z,13.17
2022-09-25T19:51:06.446Z,12.20
2022-09-25T19:53:32.961Z,12.53
2022-09-25T19:55:59.393Z,14.57
2022-09-25T19:58:25.914Z,13.23
2022-09-25T20:00:53.624Z,13.60
2022-09-25T20:03:20.247Z,13.33
2022-09-25T20:05:48.876Z,12.17
2022-09-25T20:08:15.731Z,12.57
2022-09-25T20:10:42.218Z,17.03
2022-09-25T20:13:10.036Z,16.37
2022-09-25T20:15:36.824Z,15.00
2022-09-25T20:18:10.694Z,14.57
2022-09-25T20:20:37.206Z,14.63
2022-09-25T20:23:04.754Z,14.03
2022-09-25T20:25:31.841Z,14.57
2022-09-25T20:27:59.891Z,15.87
2022-09-25T20:30:30.712Z,15.93
2022-09-25T20:32:59.570Z,14.93
2022-09-25T20:35:26.047Z,14.73
2022-09-25T20:37:53.402Z,13.53
2022-09-25T20:40:20.081Z,15.27
2022-09-25T20:42:46.918Z,14.63
2022-09-25T20:45:16.111Z,23.23
2022-09-25T20:47:46.518Z,19.23
2022-09-25T20:50:13.270Z,17.93
2022-09-25T20:52:39.961Z,17.30
2022-09-25T20:55:06.653Z,18.00
2022-09-25T20:57:33.496Z,16.90
2022-09-25T21:00:01.920Z,18.97
2022-09-25T21:02:29.508Z,19.43
2022-09-25T21:04:56.980Z,18.27
2022-09-25T21:07:25.608Z,19.77
2022-09-25T21:09:53.119Z,18.90
2022-09-25T21:12:19.910Z,19.73
2022-09-25T21:14:46.632Z,20.13
2022-09-25T21:17:13.198Z,19.23
2022-09-25T21:19:40.365Z,19.70
2022-09-25T21:22:07.024Z,20.23
2022-09-25T21:24:33.562Z,20.53
2022-09-25T21:26:59.972Z,20.77
2022-09-25T21:29:26.888Z,21.27
2022-09-25T21:31:54.698Z,20.67
2022-09-25T21:34:21.193Z,19.53
2022-09-25T21:36:48.805Z,22.37
2022-09-25T21:39:15.927Z,21.13
2022-09-25T21:41:42.527Z,22.27
2022-09-25T21:44:13.229Z,22.90
2022-09-25T21:46:40.089Z,21.77
2022-09-25T21:49:07.382Z,22.40
2022-09-25T21:51:39.168Z,22.20
2022-09-25T21:54:07.774Z,22.80
2022-09-25T21:56:34.567Z,22.80
2022-09-25T21:59:08.699Z,22.23
2022-09-25T22:01:38.471Z,23.03
2022-09-25T22:04:05.645Z,24.13
2022-09-25T22:06:44.462Z,22.27
2022-09-25T22:09:17.734Z,22.73
2022-09-25T22:11:44.264Z,23.67
2022-09-25T22:14:15.365Z,23.10
2022-09-25T22:16:43.201Z,22.90
2022-09-25T22:19:18.648Z,22.60
2022-09-25T22:21:47.134Z,22.17
2022-09-25T22:24:14.065Z,22.87
2022-09-25T22:26:42.716Z,22.33
2022-09-25T22:29:09.693Z,23.00
2022-09-25T22:31:38.357Z,23.17
2022-09-25T22:34:06.902Z,21.63
2022-09-25T22:36:35.898Z,21.67
2022-09-25T22:39:04.356Z,20.13
2022-09-25T22:41:30.782Z,22.67
2022-09-25T22:43:59.649Z,21.67
2022-09-25T22:46:27.383Z,22.47
2022-09-25T22:48:53.847Z,22.27
2022-09-25T22:51:22.206Z,22.30
2022-09-25T22:53:49.428Z,21.17
2022-09-25T22:56:18.347Z,20.87
2022-09-25T22:58:47.953Z,21.17
2022-09-25T23:01:36.674Z,21.17
2022-09-25T23:04:05.883Z,21.00
2022-09-25T23:06:33.649Z,21.13
2022-09-25T23:09:04.504Z,19.80
2022-09-25T23:11:31.585Z,21.43
2022-09-25T23:14:04.249Z,21.83
2022-09-25T23:16:32.055Z,21.27
2022-09-25T23:18:59.356Z,23.80
2022-09-25T23:21:27.073Z,22.20
2022-09-25T23:24:01.984Z,22.93
2022-09-25T23:26:29.495Z,22.57
2022-09-25T23:28:57.809Z,22.63
2022-09-25T23:31:24.465Z,23.13
2022-09-25T23:33:51.049Z,24.43
2022-09-25T23:36:22.307Z,22.70
2022-09-25T23:38:50.371Z,21.73
2022-09-25T23:41:21.823Z,21.80
2022-09-25T23:43:49.997Z,22.87
2022-09-25T23:46:18.150Z,22.03
2022-09-25T23:48:45.244Z,24.20
2022-09-25T23:51:12.839Z,23.27
2022-09-25T23:53:40.830Z,22.60
2022-09-25T23:56:19.601Z,21.83
2022-09-25T23:58:46.568Z,22.87
